Portada
METAR-TAF:

METAR-TAF

Aeropuertos :

Aeropuerto Internacional Bonriki

Tarawa, Kiribati

latitud: 01-21N, longitud: 172-55E, altitud: 2 m

Observación

El informe se hizo hace 19 minutos, a las 06:00 UTC
Viento 2 kt con dirección variable
Temperatura 30°C
Humedad 70%
Presión 1011 hPa
Visibilidad 10 km o más
Escasas nubes a una altura de 1800 ft, Cumulus congestus.
Nubes dispersas a una altura de 10000 ft

METAR: NGTA 260600Z VRB02KT 9999 FEW018TCU SCT100 30/24 Q1011

Hora: 20:19 (06:19 UTC)

Pronóstico

El informe se hizo hace 1 hora y 6 minutos, a las 05:13 UTC
Pronóstico válido del 26 a las 06 UTC al 27 a las 06 UTC
Viento 8 kt del este
Visibilidad 10 km o más
Escasas nubes a una altura de 1800 ft

TAF: NGTA 260513Z 2606/2706 08008KT 9999 FEW018

Observaciones y pronósticos meteorológicos de más de 4000 aeropuertos (mensajes METAR y TAF).

Los puntos amarillos y rojos representan las estaciones disponibles.

Ponga el ratón en el punto deseado para ver el nombre de la estación.

Haga clic para ver las observaciones y los pronósticos meteorológicos.

Para cambiar el mapa : haga clic en los botones verdes con una cruz de color negro para hacer un zoom, en el botón verde con un guión para alejar o en las flechas verdes para mapas adyacentes.


METAR-TAF: